createdAt,value
2019-03-28T00:01:22.240Z,10.00
2019-03-28T00:03:55.427Z,11.67
2019-03-28T00:06:26.423Z,10.77
2019-03-28T00:08:56.387Z,9.70
2019-03-28T00:11:26.462Z,9.13
2019-03-28T00:13:56.399Z,8.95
2019-03-28T00:16:26.304Z,9.23
2019-03-28T00:18:57.594Z,8.37
2019-03-28T00:21:27.714Z,8.53
2019-03-28T00:24:11.690Z,8.58
2019-03-28T00:26:41.564Z,9.90
2019-03-28T00:29:11.415Z,7.63
2019-03-28T00:31:41.365Z,10.20
2019-03-28T00:34:11.355Z,7.20
2019-03-28T00:36:41.214Z,8.45
2019-03-28T00:39:11.125Z,9.13
2019-03-28T00:41:41.023Z,8.73
2019-03-28T00:44:10.863Z,9.05
2019-03-28T00:46:40.902Z,8.13
2019-03-28T00:49:10.766Z,6.33
2019-03-28T00:51:43.224Z,9.43
2019-03-28T00:54:12.376Z,7.80
2019-03-28T00:56:46.799Z,7.60
2019-03-28T00:59:13.750Z,5.58
2019-03-28T01:01:43.619Z,7.20
2019-03-28T01:04:15.833Z,10.97
2019-03-28T01:06:45.720Z,8.60
2019-03-28T01:09:15.584Z,7.63
2019-03-28T01:11:45.904Z,10.03
2019-03-28T01:14:15.817Z,7.53
2019-03-28T01:16:45.759Z,7.50
2019-03-28T01:19:16.785Z,8.57
2019-03-28T01:21:46.601Z,11.83
2019-03-28T01:24:16.501Z,5.47
2019-03-28T01:26:57.173Z,6.87
2019-03-28T01:29:21.834Z,7.63
2019-03-28T01:31:54.534Z,6.30
2019-03-28T01:34:24.361Z,9.15
2019-03-28T01:36:54.281Z,6.28
2019-03-28T01:39:24.217Z,10.80
2019-03-28T01:41:57.782Z,15.83
2019-03-28T01:44:27.659Z,9.00
2019-03-28T01:47:09.615Z,10.97
2019-03-28T01:49:39.530Z,10.20
2019-03-28T01:52:09.455Z,11.78
2019-03-28T01:54:39.346Z,12.50
2019-03-28T01:57:11.234Z,10.38
2019-03-28T01:59:40.826Z,13.30
2019-03-28T02:02:15.934Z,9.33
2019-03-28T02:04:45.812Z,9.67
2019-03-28T02:07:15.720Z,11.80
2019-03-28T02:09:45.620Z,11.40
2019-03-28T02:12:15.472Z,15.30
2019-03-28T02:14:45.291Z,10.33
2019-03-28T02:17:15.249Z,10.73
2019-03-28T02:19:45.452Z,15.90
2019-03-28T02:22:15.420Z,14.13
2019-03-28T02:24:45.317Z,14.60
2019-03-28T02:27:24.047Z,14.50
2019-03-28T02:29:48.572Z,12.77
2019-03-28T02:32:18.710Z,11.97
2019-03-28T02:34:49.219Z,13.47
2019-03-28T02:37:20.629Z,13.30
2019-03-28T02:39:51.586Z,12.80
2019-03-28T02:42:23.015Z,14.23
2019-03-28T02:44:55.204Z,14.00
2019-03-28T02:47:25.024Z,16.67
2019-03-28T02:49:54.904Z,13.33
2019-03-28T02:52:24.751Z,13.10
2019-03-28T02:54:54.640Z,16.33
2019-03-28T02:57:39.581Z,14.73
2019-03-28T02:59:56.031Z,14.83
2019-03-28T03:02:25.950Z,18.57
2019-03-28T03:04:55.825Z,14.07
2019-03-28T03:07:27.014Z,15.00
2019-03-28T03:09:56.871Z,13.97
2019-03-28T11:45:39.283Z,5.28
2019-03-28T11:48:09.053Z,4.85
2019-03-28T11:50:38.917Z,5.37
2019-03-28T11:53:11.652Z,8.13
2019-03-28T11:55:41.581Z,5.30
2019-03-28T11:58:11.854Z,7.55
2019-03-28T12:00:42.174Z,7.87
2019-03-28T12:03:12.150Z,5.67
2019-03-28T12:05:41.996Z,6.05
2019-03-28T12:08:11.859Z,7.45
2019-03-28T12:10:44.598Z,3.67
2019-03-28T12:13:14.617Z,6.95
2019-03-28T12:15:44.499Z,5.62
2019-03-28T12:18:14.418Z,5.72
2019-03-28T12:20:45.703Z,6.85
2019-03-28T12:23:15.829Z,5.25
2019-03-28T12:25:47.302Z,5.65
2019-03-28T12:28:17.323Z,4.72
2019-03-28T12:31:05.962Z,6.20
2019-03-28T12:33:36.039Z,6.15
2019-03-28T12:36:05.821Z,5.62
2019-03-28T12:38:38.233Z,4.75
2019-03-28T12:41:08.131Z,7.87
2019-03-28T12:43:37.886Z,4.75
2019-03-28T12:46:07.882Z,8.78
2019-03-28T12:48:37.799Z,6.62
2019-03-28T12:51:07.638Z,9.45
2019-03-28T12:53:40.115Z,8.33
2019-03-28T12:56:10.022Z,7.78
2019-03-28T12:58:39.883Z,8.30
2019-03-28T13:01:09.791Z,6.75
2019-03-28T13:03:45.336Z,7.83
2019-03-28T13:06:11.210Z,5.80
2019-03-28T13:08:41.071Z,5.92
2019-03-28T13:11:10.945Z,6.53
2019-03-28T13:13:40.867Z,4.78
2019-03-28T13:16:10.766Z,7.50
2019-03-28T13:18:40.617Z,4.95
2019-03-28T13:21:13.803Z,6.00
2019-03-28T13:23:42.173Z,5.25
2019-03-28T13:26:11.994Z,5.37
2019-03-28T13:28:41.881Z,6.72
2019-03-28T13:31:11.702Z,5.95
2019-03-28T13:33:41.504Z,5.50
2019-03-28T13:36:11.297Z,6.10
2019-03-28T13:38:41.114Z,5.92
2019-03-28T13:41:10.944Z,7.55
2019-03-28T13:43:40.705Z,6.42
2019-03-28T13:46:10.441Z,6.37
2019-03-28T13:48:40.220Z,6.72
2019-03-28T13:51:10.004Z,7.70
2019-03-28T13:53:40.136Z,6.85
2019-03-28T13:56:10.035Z,7.65
2019-03-28T13:58:39.765Z,7.00
2019-03-28T14:01:09.547Z,5.92
2019-03-28T14:03:39.409Z,8.20
2019-03-28T14:06:09.202Z,7.03
2019-03-28T14:08:38.986Z,7.17
2019-03-28T14:11:08.820Z,5.03
2019-03-28T14:13:38.903Z,7.55
2019-03-28T14:16:08.727Z,9.40
2019-03-28T14:18:38.492Z,4.72
2019-03-28T14:21:08.355Z,9.10
2019-03-28T14:23:38.145Z,5.92
2019-03-28T14:26:07.961Z,7.12
2019-03-28T14:28:37.712Z,7.25
2019-03-28T14:31:07.644Z,5.72
2019-03-28T14:33:37.721Z,5.55
2019-03-28T14:36:07.480Z,4.95
2019-03-28T14:38:37.672Z,7.85
2019-03-28T14:41:07.602Z,5.45
2019-03-28T14:43:37.419Z,5.58
2019-03-28T14:46:07.216Z,6.92
2019-03-28T14:48:37.096Z,9.90
2019-03-28T14:51:06.811Z,5.85
2019-03-28T14:53:36.566Z,8.88
2019-03-28T14:56:06.550Z,4.83
2019-03-28T14:58:36.981Z,11.25
2019-03-28T15:01:06.752Z,6.80
2019-03-28T15:03:36.376Z,7.90
2019-03-28T15:06:06.103Z,5.80
2019-03-28T15:08:35.939Z,8.10
2019-03-28T15:11:05.584Z,7.22
2019-03-28T15:13:35.326Z,7.03
2019-03-28T15:16:05.252Z,6.17
2019-03-28T15:18:35.089Z,7.47
2019-03-28T15:21:04.866Z,8.08
2019-03-28T15:23:35.863Z,6.55
2019-03-28T15:26:05.634Z,6.60
2019-03-28T15:28:35.409Z,7.30
2019-03-28T15:31:05.143Z,8.60
2019-03-28T15:33:39.721Z,6.05
2019-03-28T15:36:06.437Z,5.85
2019-03-28T15:38:36.212Z,6.15
2019-03-28T15:41:06.060Z,6.15
2019-03-28T15:43:36.109Z,6.37
2019-03-28T15:46:05.957Z,6.53
2019-03-28T15:48:35.867Z,9.75
2019-03-28T15:51:05.682Z,5.70
2019-03-28T15:53:35.784Z,7.60
2019-03-28T15:56:05.552Z,5.42
2019-03-28T15:58:35.239Z,7.80
2019-03-28T16:01:05.076Z,7.92
2019-03-28T16:03:34.994Z,5.22
2019-03-28T16:06:04.802Z,6.33
2019-03-28T16:08:34.584Z,8.93
2019-03-28T16:11:04.352Z,5.17
2019-03-28T16:13:37.674Z,9.53
2019-03-28T16:16:08.008Z,6.28
2019-03-28T16:18:38.259Z,6.80
2019-03-28T16:21:08.261Z,5.78
2019-03-28T16:23:38.126Z,7.60
2019-03-28T16:26:07.927Z,8.13
2019-03-28T16:32:39.506Z,7.58
2019-03-28T16:35:15.444Z,6.92
2019-03-28T16:37:45.179Z,11.70
2019-03-28T16:40:44.657Z,7.85
2019-03-28T16:43:15.404Z,9.00
2019-03-28T16:45:45.466Z,7.62
2019-03-28T16:48:15.894Z,6.35
2019-03-28T16:50:51.532Z,6.87
2019-03-28T16:53:21.427Z,5.83
2019-03-28T16:55:51.195Z,10.00
2019-03-28T16:58:21.026Z,7.12
2019-03-28T17:00:50.794Z,7.87
2019-03-28T17:03:20.643Z,8.65
2019-03-28T17:05:50.716Z,12.37
2019-03-28T17:08:20.638Z,8.20
2019-03-28T17:10:53.031Z,7.80
2019-03-28T17:13:26.173Z,8.50
2019-03-28T17:15:56.010Z,7.67
2019-03-28T17:18:33.442Z,9.85
2019-03-28T17:21:03.343Z,7.78
2019-03-28T17:23:33.194Z,8.35
2019-03-28T17:26:03.123Z,12.73
2019-03-28T17:28:33.048Z,8.65
2019-03-28T17:31:02.888Z,10.28
2019-03-28T17:33:32.728Z,7.47
2019-03-28T17:36:02.750Z,7.50
2019-03-28T17:38:32.663Z,8.98
2019-03-28T17:41:03.109Z,9.03
2019-03-28T17:43:34.207Z,8.15
2019-03-28T17:46:04.112Z,10.08
2019-03-28T17:48:34.252Z,9.50
2019-03-28T17:51:05.104Z,9.45
2019-03-28T17:53:36.457Z,9.33
2019-03-28T17:56:06.371Z,11.73
2019-03-28T17:58:36.087Z,10.65
2019-03-28T18:01:06.653Z,11.57
2019-03-28T18:03:36.302Z,9.75
2019-03-28T18:06:06.094Z,10.58
2019-03-28T18:08:35.953Z,8.78
2019-03-28T18:11:05.783Z,9.20
2019-03-28T18:13:35.653Z,8.93
2019-03-28T18:16:05.441Z,10.53
2019-03-28T18:18:37.976Z,13.93
2019-03-28T18:21:07.841Z,11.78
2019-03-28T18:23:37.626Z,9.75
2019-03-28T18:26:07.472Z,10.32
2019-03-28T18:28:41.288Z,13.25
2019-03-28T18:31:11.674Z,10.45
2019-03-28T18:33:41.705Z,10.58
2019-03-28T18:36:11.529Z,12.28
2019-03-28T18:38:41.310Z,11.60
2019-03-28T18:41:11.071Z,10.75
2019-03-28T18:43:40.844Z,14.20
2019-03-28T18:46:10.669Z,15.25
2019-03-28T18:48:40.398Z,12.03
2019-03-28T18:51:10.186Z,16.15
2019-03-28T18:53:40.039Z,11.38
2019-03-28T18:56:09.879Z,12.80
2019-03-28T18:58:39.659Z,13.08
2019-03-28T19:01:09.505Z,11.43
2019-03-28T19:03:39.407Z,15.03
2019-03-28T19:06:09.246Z,11.38
2019-03-28T19:08:39.061Z,10.43
2019-03-28T19:11:08.877Z,14.25
2019-03-28T19:13:39.165Z,11.25
2019-03-28T19:16:09.626Z,11.25
2019-03-28T19:18:39.604Z,12.58
2019-03-28T19:21:09.731Z,11.38
2019-03-28T19:23:39.554Z,12.15
2019-03-28T19:26:11.006Z,11.57
2019-03-28T19:28:41.501Z,10.70
2019-03-28T19:31:11.804Z,12.95
2019-03-28T19:33:41.717Z,10.85
2019-03-28T19:36:11.742Z,9.90
2019-03-28T19:38:42.183Z,12.40
2019-03-28T19:41:12.717Z,17.87
2019-03-28T19:43:42.711Z,12.65
2019-03-28T19:46:12.541Z,14.90
2019-03-28T19:48:42.395Z,18.23
2019-03-28T19:51:12.265Z,11.18
2019-03-28T19:53:44.041Z,15.50
2019-03-28T19:56:14.116Z,12.20
2019-03-28T19:58:43.938Z,15.35
2019-03-28T20:01:13.660Z,14.95
2019-03-28T20:03:46.703Z,14.03
2019-03-28T20:06:22.059Z,11.33
2019-03-28T20:09:15.637Z,10.58
2019-03-28T20:11:38.912Z,13.90
2019-03-28T20:14:10.731Z,12.35
2019-03-28T20:16:40.572Z,12.50
2019-03-28T20:19:13.429Z,13.25
2019-03-28T20:21:44.545Z,12.33
2019-03-28T20:24:15.009Z,13.68
2019-03-28T20:26:45.048Z,13.70
2019-03-28T20:29:14.936Z,14.30
2019-03-28T20:31:45.160Z,11.30
2019-03-28T20:34:15.530Z,15.00
2019-03-28T20:36:46.066Z,17.80
2019-03-28T20:39:16.022Z,26.87
2019-03-28T20:41:45.895Z,18.07
2019-03-28T20:44:15.609Z,14.65
2019-03-28T20:46:45.464Z,13.93
2019-03-28T20:49:15.436Z,17.83
2019-03-28T20:51:45.273Z,16.10
2019-03-28T20:54:16.759Z,16.40
2019-03-28T20:56:46.885Z,17.25
2019-03-28T20:59:20.702Z,16.52
2019-03-28T21:01:52.482Z,16.30
2019-03-28T21:04:31.192Z,13.53
2019-03-28T21:06:53.966Z,13.58
2019-03-28T21:09:34.167Z,17.48
2019-03-28T21:12:27.548Z,13.50
2019-03-28T21:14:57.884Z,16.00
2019-03-28T21:17:27.725Z,17.10
2019-03-28T21:19:57.530Z,15.80
2019-03-28T21:22:27.411Z,16.65
2019-03-28T21:24:57.324Z,19.07
2019-03-28T21:27:27.216Z,15.28
2019-03-28T21:29:57.027Z,16.57
2019-03-28T21:32:26.898Z,16.07
2019-03-28T21:34:56.805Z,15.98
2019-03-28T21:37:26.745Z,16.67
2019-03-28T21:39:56.829Z,15.63
2019-03-28T21:42:26.689Z,14.80
2019-03-28T21:44:58.391Z,22.80
2019-03-28T21:47:29.277Z,16.45
2019-03-28T21:49:59.050Z,15.32
2019-03-28T21:52:28.908Z,36.88
2019-03-28T21:54:58.725Z,25.80
2019-03-28T21:57:28.543Z,18.40
2019-03-28T21:59:58.315Z,16.17
2019-03-28T22:02:28.082Z,18.80
2019-03-28T22:04:58.057Z,14.87
2019-03-28T22:07:27.921Z,15.43
2019-03-28T22:09:57.868Z,18.80
2019-03-28T22:12:27.605Z,14.75
2019-03-28T22:14:57.447Z,16.00
2019-03-28T22:17:27.340Z,18.60
2019-03-28T22:19:57.148Z,20.95
2019-03-28T22:22:26.979Z,17.15
2019-03-28T22:24:56.846Z,15.93
2019-03-28T22:27:26.604Z,19.55
2019-03-28T22:29:56.353Z,16.75
2019-03-28T22:32:26.089Z,21.60
2019-03-28T22:34:55.989Z,15.60
2019-03-28T22:37:25.903Z,19.75
2019-03-28T22:39:55.826Z,15.38
2019-03-28T22:42:25.744Z,18.02
2019-03-28T22:44:55.549Z,19.10
2019-03-28T22:47:25.391Z,18.17
2019-03-28T22:49:55.185Z,23.12
2019-03-28T22:52:24.978Z,20.12
2019-03-28T22:54:57.206Z,16.25
2019-03-28T22:57:27.084Z,22.27
2019-03-28T22:59:57.001Z,17.98
2019-03-28T23:02:26.823Z,17.85
2019-03-28T23:04:56.614Z,21.65
2019-03-28T23:07:26.488Z,19.27
2019-03-28T23:09:56.313Z,16.73
2019-03-28T23:12:26.115Z,18.20
2019-03-28T23:14:55.857Z,18.15
2019-03-28T23:17:25.677Z,18.40
2019-03-28T23:19:55.452Z,17.55
2019-03-28T23:22:26.090Z,19.17
2019-03-28T23:24:55.937Z,16.27
2019-03-28T23:27:26.930Z,20.43
2019-03-28T23:29:56.979Z,17.87
2019-03-28T23:32:26.837Z,18.50
2019-03-28T23:34:56.561Z,19.67
2019-03-28T23:37:26.943Z,20.15
2019-03-28T23:39:56.934Z,19.07
2019-03-28T23:42:26.694Z,22.27
2019-03-28T23:44:56.470Z,19.60
2019-03-28T23:47:26.321Z,16.35
2019-03-28T23:49:56.090Z,17.65
2019-03-28T23:52:25.994Z,16.45
2019-03-28T23:54:55.950Z,18.23
2019-03-28T23:57:25.838Z,22.00
2019-03-28T23:59:55.699Z,19.10
